Latest Weather Observations for Dubbo

IDN60801

Issued at 9:03 am EDT Friday 30 January 2015 (issued every 30 minutes, with the page automatically refreshed every 10 minutes)

About weather observations | Map of weather stations | Latest weather observations for NSW | Other Formats
Station Details ID: 065070 Name: DUBBO AIRPORT AWS Lat: -32.22 Lon: 148.58 Height: 284.0 m
Data from the previous 72 hours. | See also: Recent months at Dubbo
Date/Time
EDT
Temp
°C
App
Temp
°C
Dew
Point
Rel
Hum
%
Delta-T
°C
Wind Press
QNH
hPa
Press
MSL
hPa
Rain
since 9 am
mm
Dir
 
Spd
km/h
Gust
km/h
Spd
kts
Gust
kts
30/08:30am 16.3 14.5 12.1 76 2.3 SE 13 17 7 9 1011.2 1009.6 0.0
30/08:00am 15.1 13.0 11.3 78 2.1 SSE 13 17 7 9 1011.1 1009.5 0.0
30/07:30am 13.6 11.1 11.1 85 1.3 SE 15 19 8 10 1010.8 1009.2 0.0
30/07:00am 11.7 8.8 9.6 87 1.1 SSE 15 17 8 9 1010.5 1008.8 0.0
30/06:30am 10.7 7.3 9.0 89 0.9 SSE 17 19 9 10 1010.1 1008.4 0.0
30/06:00am 10.8 7.8 9.1 89 0.9 SE 15 17 8 9 1009.9 1008.2 0.0
30/05:30am 11.0 8.0 9.1 88 1.0 SSE 15 20 8 11 1009.8 1008.1 0.0
30/05:00am 11.1 7.7 9.0 87 1.1 SSE 17 20 9 11 1009.7 1008.0 0.0
30/04:30am 11.4 8.8 9.5 88 1.0 E 13 19 7 10 1009.6 1007.9 0.0
30/04:00am 11.3 9.3 8.7 84 1.3 ENE 9 13 5 7 1009.6 1007.9 0.0
30/03:30am 11.6 9.0 9.5 87 1.1 ESE 13 15 7 8 1009.7 1008.0 0.0
30/03:00am 10.3 8.4 9.1 92 0.6 ESE 9 11 5 6 1009.8 1008.1 0.0
30/02:30am 11.5 10.0 9.1 85 1.2 SSE 7 9 4 5 1009.8 1008.1 0.0
30/02:00am 12.3 10.3 10.0 86 1.2 SE 11 13 6 7 1009.8 1008.1 0.0
30/01:30am 11.6 10.1 9.3 86 1.2 SSE 7 9 4 5 1010.1 1008.4 0.0
30/01:00am 11.9 11.8 9.3 84 1.3 CALM 0 0 0 0 1010.6 1008.9 0.0
30/12:30am 13.8 13.5 8.8 72 2.6 CALM 0 4 0 2 1010.8 1009.2 0.0
30/12:00am 13.2 11.3 7.6 69 2.8 E 7 9 4 5 1010.9 1009.3 0.0
 
Date/Time
EDT
Temp
°C
App
Temp
°C
Dew
Point
Rel
Hum
%
Delta-T
°C
Wind Press
QNH
hPa
Press
MSL
hPa
Rain
since 9 am
mm
Dir
 
Spd
km/h
Gust
km/h
Spd
kts
Gust
kts
29/11:30pm 14.1 12.1 8.5 69 2.9 SSE 9 9 5 5 1011.1 1009.5 0.0
29/11:00pm 15.4 12.9 8.4 63 3.6 S 11 13 6 7 1011.3 1009.7 0.0
29/10:30pm 15.8 13.0 8.5 62 3.8 S 13 13 7 7 1011.4 1009.8 0.0
29/10:00pm 16.5 14.3 9.2 62 3.8 S 11 13 6 7 1011.5 1009.9 0.0
29/09:30pm 16.2 14.3 8.9 62 3.8 SW 9 13 5 7 1011.2 1009.6 0.0
29/09:00pm 18.3 15.9 8.6 53 5.1 SSW 11 15 6 8 1010.9 1009.3 0.0
29/08:30pm 19.0 16.8 7.8 48 5.8 SSW 9 11 5 6 1010.8 1009.2 0.0
29/08:00pm 20.7 17.7 7.7 43 6.8 SSW 13 15 7 8 1010.7 1009.0 0.0
29/07:30pm 23.2 19.3 7.3 36 8.4 S 17 24 9 13 1010.5 1008.8 0.0
29/07:00pm 24.2 20.1 7.8 35 8.8 SSW 19 24 10 13 1010.3 1008.6 0.0
29/06:30pm 24.9 20.6 8.0 34 9.1 SSW 20 30 11 16 1010.1 1008.4 0.0
29/06:00pm 25.2 19.8 7.8 33 9.4 SSW 26 37 14 20 1010.0 1008.3 0.0
29/05:30pm 25.9 21.6 9.3 35 9.2 S 22 39 12 21 1010.1 1008.4 0.0
29/05:00pm 25.6 21.5 7.7 32 9.7 S 19 35 10 19 1010.3 1008.6 0.0
29/04:30pm 27.2 23.3 10.8 36 9.4 SW 22 37 12 20 1010.5 1008.8 0.0
29/04:00pm 26.2 21.6 9.5 35 9.3 SSW 24 33 13 18 1010.8 1009.2 0.0
29/03:30pm 25.2 21.1 11.4 42 7.9 S 24 35 13 19 1010.8 1009.2 0.0
29/03:00pm 24.6 20.9 10.1 40 8.1 SSW 20 37 11 20 1011.1 1009.5 0.0
29/02:30pm 25.4 22.6 11.2 41 8.1 S 17 24 9 13 1011.5 1009.9 0.0
29/02:00pm 23.2 20.5 10.3 44 7.2 S 15 26 8 14 1012.0 1010.4 0.0
29/01:30pm 23.9 21.6 11.9 47 6.9 SSE 15 26 8 14 1012.5 1010.8 0.0
29/01:00pm 24.3 22.8 14.1 53 6.1 SSE 15 22 8 12 1012.9 1011.2 0.0
29/12:30pm 22.6 20.7 11.7 50 6.2 SSE 13 19 7 10 1013.5 1011.8 0.0
29/12:00pm 22.4 20.6 12.1 52 5.9 S 13 19 7 10 1013.8 1012.1 0.0
29/11:30am 21.7 20.0 12.3 55 5.4 SSE 13 22 7 12 1013.8 1012.1 0.0
29/11:00am 21.3 20.2 11.9 55 5.3 ESE 9 15 5 8 1014.0 1012.4 0.0
29/10:30am 20.3 18.4 11.8 58 4.8 SE 13 19 7 10 1014.1 1012.5 0.0
29/10:00am 20.2 18.3 12.9 63 4.2 ESE 15 22 8 12 1014.1 1012.5 0.0
29/09:30am 19.2 16.8 12.5 65 3.8 ESE 17 24 9 13 1014.1 1012.5 0.0
29/09:00am 17.7 15.4 13.0 74 2.7 SE 17 20 9 11 1014.1 1012.5 0.0
29/08:30am 16.1 13.5 12.1 77 2.2 SE 17 20 9 11 1014.1 1012.5 0.0
29/08:00am 14.6 12.3 11.7 83 1.6 SE 15 19 8 10 1013.8 1012.1 0.0
29/07:30am 13.7 12.0 12.4 92 0.7 SE 13 19 7 10 1013.6 1011.9 0.0
29/07:00am 12.4 10.2 12.1 98 0.2 SSE 15 19 8 10 1013.4 1011.7 0.0
29/06:30am 12.1 9.8 11.9 99 0.1 SSE 15 17 8 9 1013.2 1011.5 0.0
29/06:00am 11.5 9.5 11.5 100 0.0 SSE 13 15 7 8 1012.9 1011.2 0.0
29/05:30am 11.1 9.7 10.9 99 0.1 S 9 11 5 6 1012.7 1011.0 0.0
29/05:00am 11.0 9.5 10.4 96 0.3 SE 9 9 5 5 1012.3 1010.6 0.0
29/04:30am 12.0 10.3 11.2 95 0.4 SE 11 15 6 8 1012.4 1010.7 0.0
29/04:00am 12.0 10.0 11.4 96 0.3 ESE 13 15 7 8 1012.4 1010.7 0.0
29/03:30am 12.3 10.3 11.5 95 0.4 SE 13 15 7 8 1012.6 1010.9 0.0
29/03:00am 12.6 10.7 11.8 95 0.4 SE 13 15 7 8 1012.7 1011.0 0.0
29/02:30am 13.1 11.3 12.2 94 0.5 SE 13 15 7 8 1012.9 1011.2 0.0
29/02:00am 13.1 10.9 12.2 94 0.5 SE 15 17 8 9 1013.0 1011.3 0.0
29/01:30am 13.4 10.9 12.3 93 0.6 SE 17 19 9 10 1013.1 1011.4 0.0
29/01:00am 13.6 11.5 12.3 92 0.7 SE 15 17 8 9 1013.3 1011.6 0.0
29/12:30am 13.8 11.7 12.5 92 0.7 SE 15 17 8 9 1013.5 1011.8 0.0
29/12:00am 13.8 12.1 12.4 91 0.8 SE 13 15 7 8 1013.3 1011.6 0.0
 
Date/Time
EDT
Temp
°C
App
Temp
°C
Dew
Point
Rel
Hum
%
Delta-T
°C
Wind Press
QNH
hPa
Press
MSL
hPa
Rain
since 9 am
mm
Dir
 
Spd
km/h
Gust
km/h
Spd
kts
Gust
kts
28/11:30pm 14.7 12.8 12.9 89 1.0 SE 15 17 8 9 1013.4 1011.7 0.0
28/11:00pm 14.8 13.2 12.7 87 1.2 ESE 13 17 7 9 1013.4 1011.7 0.0
28/10:30pm 15.5 13.9 14.0 91 0.9 ESE 15 20 8 11 1013.4 1011.7 0.0
28/10:00pm 15.0 13.7 13.7 92 0.7 ESE 13 15 7 8 1013.1 1011.4 0.0
28/09:30pm 16.0 14.6 14.4 90 0.9 E 15 17 8 9 1012.8 1011.1 0.0
28/09:00pm 16.2 14.8 14.4 89 1.0 E 15 20 8 11 1012.8 1011.1 0.0
28/08:30pm 17.5 15.4 14.6 83 1.7 E 19 24 10 13 1012.7 1011.0 0.0
28/08:00pm 18.4 16.2 14.5 78 2.3 E 19 26 10 14 1012.4 1010.7 0.0
28/07:30pm 19.4 15.4 14.2 72 3.0 E 28 41 15 22 1012.3 1010.6 0.0
28/07:00pm 20.2 16.0 14.6 70 3.3 E 30 46 16 25 1012.0 1010.4 0.0
28/06:30pm 19.6 15.5 14.8 74 2.8 ESE 30 41 16 22 1011.7 1010.1 0.0
28/06:00pm 20.9 16.9 14.1 65 4.0 E 28 39 15 21 1011.5 1009.9 0.0
28/05:30pm 20.8 19.5 15.8 73 3.0 E 17 24 9 13 1011.7 1010.1 0.0
28/05:00pm 20.3 17.4 15.1 72 3.1 E 24 32 13 17 1011.7 1010.1 0.0
28/04:30pm 20.2 17.5 15.6 75 2.8 E 24 35 13 19 1011.8 1010.2 0.0
28/04:00pm 20.9 18.0 16.1 74 2.9 ESE 26 35 14 19 1011.6 1010.0 0.0
28/03:30pm 20.9 16.9 16.1 74 2.9 SSE 32 43 17 23 1011.7 1010.1 0.0
28/03:00pm 21.8 18.6 16.3 71 3.4 SE 28 37 15 20 1011.6 1010.0 0.0
28/02:30pm 21.7 17.2 14.8 65 4.1 ESE 32 43 17 23 1011.5 1009.9 0.0
28/02:00pm 21.7 17.9 14.6 64 4.2 ESE 28 37 15 20 1011.6 1010.0 0.0
28/01:30pm 21.7 17.7 15.3 67 3.9 ESE 30 44 16 24 1011.7 1010.1 0.0
28/01:00pm 22.7 18.2 15.3 63 4.5 SE 33 46 18 25 1011.5 1009.9 0.0
28/12:30pm 24.3 20.3 16.3 61 4.9 ESE 32 43 17 23 1011.5 1009.9 0.0
28/12:00pm 23.1 19.7 15.7 63 4.5 ESE 28 39 15 21 1011.6 1010.0 0.0
28/11:30am 23.2 19.6 16.3 65 4.2 ESE 30 41 16 22 1011.7 1010.1 0.0
28/11:00am 21.8 18.9 16.1 70 3.5 ESE 26 35 14 19 1012.0 1010.4 0.0
28/10:30am 21.3 19.0 15.6 70 3.4 ESE 22 30 12 16 1011.9 1010.3 0.0
28/10:00am 20.6 17.5 15.6 73 3.0 ESE 26 33 14 18 1011.8 1010.2 0.0
28/09:30am 20.2 16.7 15.6 75 2.8 ESE 28 39 15 21 1011.6 1010.0 0.0
28/09:00am 19.8 17.9 15.7 77 2.5 ESE 20 28 11 15 1011.5 1009.9 10.2
28/08:30am 19.3 17.5 15.6 79 2.2 ESE 19 26 10 14 1011.2 1009.6 10.2
28/08:00am 18.3 17.2 15.2 82 1.8 SE 15 20 8 11 1010.9 1009.3 10.2
28/07:30am 17.6 16.8 15.0 85 1.5 SE 13 17 7 9 1010.4 1008.7 10.2
28/07:00am 15.8 14.5 14.8 94 0.6 SE 15 17 8 9 1010.1 1008.4 10.2
28/06:30am 15.2 13.4 14.4 95 0.5 SSE 17 19 9 10 1009.9 1008.2 10.2
28/06:00am 14.9 13.4 14.1 95 0.5 SSE 15 17 8 9 1009.6 1007.9 10.2
28/05:30am 15.0 13.1 14.2 95 0.5 SE 17 17 9 9 1009.3 1007.6 10.2
28/05:00am 15.1 13.2 14.1 94 0.6 SE 17 19 9 10 1009.2 1007.5 10.2
28/04:30am 15.4 13.5 14.3 93 0.6 SE 17 19 9 10 1009.0 1007.3 10.2
28/04:00am 15.7 14.0 14.6 93 0.6 SE 17 20 9 11 1008.9 1007.2 10.2
28/03:30am 15.9 14.2 14.6 92 0.8 SE 17 22 9 12 1008.9 1007.2 10.2
28/03:00am 16.2 14.0 14.9 92 0.8 SE 20 24 11 13 1009.1 1007.4 10.2
28/02:30am 16.1 14.5 15.1 94 0.6 SE 17 20 9 11 1009.3 1007.6 10.2
28/02:00am 16.1 14.9 15.1 94 0.6 SE 15 19 8 10 1009.4 1007.7 10.2
28/01:30am 16.6 15.0 15.1 91 0.9 SE 17 22 9 12 1009.7 1008.0 10.2
28/01:00am 16.5 15.3 15.0 91 0.9 ESE 15 20 8 11 1009.9 1008.2 10.2
28/12:30am 16.7 15.1 15.1 90 0.9 SE 17 20 9 11 1010.2 1008.5 10.2
28/12:00am 17.1 15.5 15.1 88 1.2 ESE 17 20 9 11 1010.2 1008.5 10.2
 
Date/Time
EDT
Temp
°C
App
Temp
°C
Dew
Point
Rel
Hum
%
Delta-T
°C
Wind Press
QNH
hPa
Press
MSL
hPa
Rain
since 9 am
mm
Dir
 
Spd
km/h
Gust
km/h
Spd
kts
Gust
kts
27/11:30pm 17.2 16.1 15.2 88 1.2 SE 15 20 8 11 1010.3 1008.6 10.2
27/11:00pm 17.6 15.7 15.2 86 1.4 ESE 19 26 10 14 1010.3 1008.6 10.2
27/10:30pm 17.9 15.2 15.7 87 1.3 SE 24 32 13 17 1009.9 1008.2 10.2
27/10:00pm 18.0 15.8 16.0 88 1.2 ESE 22 33 12 18 1009.8 1008.1 10.2
27/09:30pm 18.3 15.8 16.1 87 1.3 ESE 24 33 13 18 1009.5 1007.8 10.2
27/09:00pm 18.6 16.5 16.2 86 1.5 ESE 22 32 12 17 1009.4 1007.7 10.2
27/08:30pm 18.7 16.5 15.9 84 1.7 ESE 22 33 12 18 1009.0 1007.3 10.2
27/08:00pm 19.6 16.3 16.1 80 2.1 ESE 28 43 15 23 1008.7 1007.0 10.2
27/07:30pm 20.3 16.2 16.5 79 2.3 E 33 52 18 28 1008.7 1007.0 10.2
27/07:27pm 20.4 16.3 16.4 78 2.4 E 33 52 18 28 1008.6 1006.9 10.2
27/07:00pm 21.0 17.3 17.0 78 2.5 E 32 46 17 25 1007.6 1005.9 10.2
27/06:30pm 20.7 16.9 17.1 80 2.2 E 33 46 18 25 1007.7 1006.1 10.2
27/06:00pm 20.6 17.4 17.2 81 2.1 ENE 30 44 16 24 1007.8 1006.2 10.2
27/05:30pm 21.1 19.3 17.9 82 2.0 E 24 35 13 19 1007.8 1006.2 10.2
27/05:00pm 21.3 20.5 18.5 84 1.8 E 20 26 11 14 1008.0 1006.4 10.2
27/04:30pm 21.1 21.1 19.0 88 1.3 E 17 22 9 12 1007.9 1006.3 10.0
27/04:00pm 20.8 21.4 18.7 88 1.3 ESE 13 24 7 13 1008.7 1007.0 9.8
27/03:30pm 20.3 18.2 19.0 92 0.8 E 28 41 15 22 1007.8 1006.2 9.4
27/03:00pm 21.2 20.4 18.4 84 1.8 E 20 32 11 17 1009.0 1007.3 9.0
27/02:30pm 22.1 20.6 18.5 80 2.3 E 24 32 13 17 1008.7 1007.0 8.8
27/02:00pm 23.1 21.5 18.4 75 3.0 ESE 24 30 13 16 1009.1 1007.4 8.2
27/01:30pm 24.8 24.1 19.6 73 3.4 E 22 33 12 18 1008.8 1007.1 7.6
27/01:00pm 23.1 22.0 20.2 84 1.9 ESE 26 33 14 18 1009.0 1007.3 6.8
27/12:30pm 21.2 21.5 20.4 95 0.5 ESE 19 30 10 16 1009.6 1007.9 6.0
27/12:00pm 20.0 19.2 19.2 95 0.5 ESE 22 28 12 15 1009.7 1008.0 5.2
27/11:30am 20.3 21.5 19.1 93 0.8 NNE 11 15 6 8 1011.4 1009.8 4.4
27/11:00am 20.7 21.2 20.0 96 0.5 ESE 17 24 9 13 1010.6 1008.9 3.2
27/10:30am 19.6 20.3 19.6 100 0.0 ESE 15 22 8 12 1010.2 1008.5 2.2
27/10:20am 19.1 19.9 19.1 100 0.0 E 13 19 7 10 1010.2 1008.5 1.8
27/10:14am 18.8 19.1 18.8 100 0.0 E 15 22 8 12 1010.3 1008.6 1.6
27/10:01am 18.6 17.8 18.4 99 0.1 ENE 20 26 11 14 1010.3 1008.6 1.0
27/10:00am 18.6 18.0 18.4 99 0.1 ENE 19 24 10 13 1010.4 1008.7 1.0
27/09:42am 19.7 20.0 17.8 89 1.2 NE 13 20 7 11 1011.3 1009.7 0.0
27/09:30am 20.9 20.4 17.9 83 1.9 E 17 22 9 12 1010.6 1008.9 0.0

Other Formats:

Comma delimited format used in spreadsheet applications
http://www.bom.gov.au/fwo/IDN60801/IDN60801.95719.axf

JavaScript Object Notation format (JSON) in row-major order
http://www.bom.gov.au/fwo/IDN60801/IDN60801.95719.json